sensor_id;sensor_type;location;lat;lon;timestamp;temperature;humidity
55988;DHT22;67216;50.930;4.514;2023-02-15T00:01:52;3.20;91.90
55988;DHT22;67216;50.930;4.514;2023-02-15T00:04:20;3.20;91.80
55988;DHT22;67216;50.930;4.514;2023-02-15T00:06:46;3.30;91.40
55988;DHT22;67216;50.930;4.514;2023-02-15T00:09:12;3.30;91.00
55988;DHT22;67216;50.930;4.514;2023-02-15T00:11:39;3.30;91.10
55988;DHT22;67216;50.930;4.514;2023-02-15T00:16:35;3.70;91.00
55988;DHT22;67216;50.930;4.514;2023-02-15T00:19:05;4.40;88.70
55988;DHT22;67216;50.930;4.514;2023-02-15T00:21:32;4.70;85.50
55988;DHT22;67216;50.930;4.514;2023-02-15T00:24:00;4.60;84.70
55988;DHT22;67216;50.930;4.514;2023-02-15T00:26:26;3.90;86.60
55988;DHT22;67216;50.930;4.514;2023-02-15T00:28:57;3.40;89.30
55988;DHT22;67216;50.930;4.514;2023-02-15T00:31:30;3.20;90.10
55988;DHT22;67216;50.930;4.514;2023-02-15T00:34:06;3.20;90.10
55988;DHT22;67216;50.930;4.514;2023-02-15T00:36:34;3.10;90.50
55988;DHT22;67216;50.930;4.514;2023-02-15T00:38:59;3.40;90.70
55988;DHT22;67216;50.930;4.514;2023-02-15T00:41:28;3.60;90.10
55988;DHT22;67216;50.930;4.514;2023-02-15T00:43:54;3.60;90.20
55988;DHT22;67216;50.930;4.514;2023-02-15T00:46:20;4.10;89.20
55988;DHT22;67216;50.930;4.514;2023-02-15T00:48:46;4.10;88.50
55988;DHT22;67216;50.930;4.514;2023-02-15T00:51:15;4.30;87.90
55988;DHT22;67216;50.930;4.514;2023-02-15T00:53:42;4.20;88.30
55988;DHT22;67216;50.930;4.514;2023-02-15T00:56:09;4.10;89.50
55988;DHT22;67216;50.930;4.514;2023-02-15T00:58:35;4.10;90.00
55988;DHT22;67216;50.930;4.514;2023-02-15T01:01:06;4.30;89.80
55988;DHT22;67216;50.930;4.514;2023-02-15T01:03:33;4.20;88.80
55988;DHT22;67216;50.930;4.514;2023-02-15T01:05:59;4.00;89.40
55988;DHT22;67216;50.930;4.514;2023-02-15T01:08:27;3.80;90.20
55988;DHT22;67216;50.930;4.514;2023-02-15T01:10:54;3.80;90.10
55988;DHT22;67216;50.930;4.514;2023-02-15T01:13:22;3.70;90.00
55988;DHT22;67216;50.930;4.514;2023-02-15T01:15:53;3.70;90.20
55988;DHT22;67216;50.930;4.514;2023-02-15T01:18:24;3.90;90.10
55988;DHT22;67216;50.930;4.514;2023-02-15T01:20:50;4.40;88.60
55988;DHT22;67216;50.930;4.514;2023-02-15T01:23:16;4.60;87.00
55988;DHT22;67216;50.930;4.514;2023-02-15T01:25:42;4.70;86.20
55988;DHT22;67216;50.930;4.514;2023-02-15T01:28:09;4.90;85.50
55988;DHT22;67216;50.930;4.514;2023-02-15T01:30:35;5.00;84.50
55988;DHT22;67216;50.930;4.514;2023-02-15T01:33:01;4.90;84.70
55988;DHT22;67216;50.930;4.514;2023-02-15T01:35:31;4.90;84.90
55988;DHT22;67216;50.930;4.514;2023-02-15T01:37:59;4.90;85.30
55988;DHT22;67216;50.930;4.514;2023-02-15T01:40:25;4.90;85.10
55988;DHT22;67216;50.930;4.514;2023-02-15T01:42:53;4.90;85.30
55988;DHT22;67216;50.930;4.514;2023-02-15T01:45:29;5.00;84.50
55988;DHT22;67216;50.930;4.514;2023-02-15T01:50:34;5.10;84.90
55988;DHT22;67216;50.930;4.514;2023-02-15T01:55:50;4.40;86.80
55988;DHT22;67216;50.930;4.514;2023-02-15T01:58:18;4.30;87.60
55988;DHT22;67216;50.930;4.514;2023-02-15T02:00:44;4.60;87.30
55988;DHT22;67216;50.930;4.514;2023-02-15T02:03:11;5.00;84.90
55988;DHT22;67216;50.930;4.514;2023-02-15T02:05:40;4.90;83.60
55988;DHT22;67216;50.930;4.514;2023-02-15T02:08:07;4.50;84.90
55988;DHT22;67216;50.930;4.514;2023-02-15T02:10:35;4.40;86.20
55988;DHT22;67216;50.930;4.514;2023-02-15T02:13:06;4.10;87.50
55988;DHT22;67216;50.930;4.514;2023-02-15T02:15:58;3.90;89.00
55988;DHT22;67216;50.930;4.514;2023-02-15T02:22:00;3.60;90.30
55988;DHT22;67216;50.930;4.514;2023-02-15T02:27:34;3.60;90.70
55988;DHT22;67216;50.930;4.514;2023-02-15T02:43:29;3.20;85.10
55988;DHT22;67216;50.930;4.514;2023-02-15T02:46:02;3.00;86.00
55988;DHT22;67216;50.930;4.514;2023-02-15T02:48:32;3.00;86.60
55988;DHT22;67216;50.930;4.514;2023-02-15T02:51:01;3.00;86.00
55988;DHT22;67216;50.930;4.514;2023-02-15T02:53:30;2.50;86.90
55988;DHT22;67216;50.930;4.514;2023-02-15T02:56:44;2.30;88.00
55988;DHT22;67216;50.930;4.514;2023-02-15T03:01:52;1.90;90.00
55988;DHT22;67216;50.930;4.514;2023-02-15T03:04:27;1.80;90.00
55988;DHT22;67216;50.930;4.514;2023-02-15T03:07:06;1.90;90.20
55988;DHT22;67216;50.930;4.514;2023-02-15T03:09:37;1.80;90.60
55988;DHT22;67216;50.930;4.514;2023-02-15T03:12:26;1.80;90.60
55988;DHT22;67216;50.930;4.514;2023-02-15T03:15:10;1.80;90.70
55988;DHT22;67216;50.930;4.514;2023-02-15T03:17:42;1.80;90.90
55988;DHT22;67216;50.930;4.514;2023-02-15T03:20:14;1.70;90.60
55988;DHT22;67216;50.930;4.514;2023-02-15T03:22:48;1.80;90.90
55988;DHT22;67216;50.930;4.514;2023-02-15T03:25:24;1.90;91.00
55988;DHT22;67216;50.930;4.514;2023-02-15T03:27:55;1.90;91.10
55988;DHT22;67216;50.930;4.514;2023-02-15T03:30:25;1.90;91.10
55988;DHT22;67216;50.930;4.514;2023-02-15T03:32:52;1.80;91.20
55988;DHT22;67216;50.930;4.514;2023-02-15T03:35:23;1.80;91.00
55988;DHT22;67216;50.930;4.514;2023-02-15T03:37:55;1.90;90.90
55988;DHT22;67216;50.930;4.514;2023-02-15T03:40:28;1.90;90.30
55988;DHT22;67216;50.930;4.514;2023-02-15T03:43:19;1.90;90.30
55988;DHT22;67216;50.930;4.514;2023-02-15T03:45:51;2.20;88.40
55988;DHT22;67216;50.930;4.514;2023-02-15T03:48:27;2.20;87.10
55988;DHT22;67216;50.930;4.514;2023-02-15T03:51:07;1.80;88.50
55988;DHT22;67216;50.930;4.514;2023-02-15T03:53:54;1.50;89.70
55988;DHT22;67216;50.930;4.514;2023-02-15T03:56:21;1.40;90.40
55988;DHT22;67216;50.930;4.514;2023-02-15T03:58:47;1.30;90.70
55988;DHT22;67216;50.930;4.514;2023-02-15T04:04:20;1.40;91.00
55988;DHT22;67216;50.930;4.514;2023-02-15T04:06:47;1.40;91.30
55988;DHT22;67216;50.930;4.514;2023-02-15T04:09:15;1.40;91.60
55988;DHT22;67216;50.930;4.514;2023-02-15T04:12:02;1.50;91.80
55988;DHT22;67216;50.930;4.514;2023-02-15T04:14:27;1.80;91.30
55988;DHT22;67216;50.930;4.514;2023-02-15T04:17:11;1.80;90.90
55988;DHT22;67216;50.930;4.514;2023-02-15T04:19:40;1.70;90.70
55988;DHT22;67216;50.930;4.514;2023-02-15T04:22:26;1.60;90.70
55988;DHT22;67216;50.930;4.514;2023-02-15T04:25:10;1.50;90.90
55988;DHT22;67216;50.930;4.514;2023-02-15T04:27:45;1.50;91.20
55988;DHT22;67216;50.930;4.514;2023-02-15T04:30:15;1.70;91.80
55988;DHT22;67216;50.930;4.514;2023-02-15T04:32:43;1.80;91.30
55988;DHT22;67216;50.930;4.514;2023-02-15T04:35:15;1.70;90.80
55988;DHT22;67216;50.930;4.514;2023-02-15T04:37:44;1.60;91.10
55988;DHT22;67216;50.930;4.514;2023-02-15T04:40:14;1.60;91.40
55988;DHT22;67216;50.930;4.514;2023-02-15T04:42:41;1.60;91.30
55988;DHT22;67216;50.930;4.514;2023-02-15T04:45:07;1.60;91.60
55988;DHT22;67216;50.930;4.514;2023-02-15T04:47:32;1.80;92.10
55988;DHT22;67216;50.930;4.514;2023-02-15T04:49:59;1.90;92.40
55988;DHT22;67216;50.930;4.514;2023-02-15T04:52:24;2.00;92.40
55988;DHT22;67216;50.930;4.514;2023-02-15T04:54:50;2.30;92.00
55988;DHT22;67216;50.930;4.514;2023-02-15T04:57:17;2.20;91.30
55988;DHT22;67216;50.930;4.514;2023-02-15T04:59:42;2.10;91.40
55988;DHT22;67216;50.930;4.514;2023-02-15T05:02:08;2.10;91.50
55988;DHT22;67216;50.930;4.514;2023-02-15T05:04:34;2.20;91.60
55988;DHT22;67216;50.930;4.514;2023-02-15T05:07:00;2.20;91.40
55988;DHT22;67216;50.930;4.514;2023-02-15T05:09:25;2.20;90.90
55988;DHT22;67216;50.930;4.514;2023-02-15T05:11:51;2.10;90.60
55988;DHT22;67216;50.930;4.514;2023-02-15T05:14:19;1.90;90.20
55988;DHT22;67216;50.930;4.514;2023-02-15T05:16:45;2.00;90.90
55988;DHT22;67216;50.930;4.514;2023-02-15T05:19:13;2.10;90.70
55988;DHT22;67216;50.930;4.514;2023-02-15T05:21:39;2.00;90.90
55988;DHT22;67216;50.930;4.514;2023-02-15T05:24:05;1.70;91.00
55988;DHT22;67216;50.930;4.514;2023-02-15T05:26:50;1.70;91.50
55988;DHT22;67216;50.930;4.514;2023-02-15T05:29:37;1.80;91.40
55988;DHT22;67216;50.930;4.514;2023-02-15T05:32:03;2.60;90.70
55988;DHT22;67216;50.930;4.514;2023-02-15T05:34:29;2.70;89.60
55988;DHT22;67216;50.930;4.514;2023-02-15T05:36:55;2.40;90.20
55988;DHT22;67216;50.930;4.514;2023-02-15T05:39:20;2.30;90.90
55988;DHT22;67216;50.930;4.514;2023-02-15T05:41:46;2.20;91.40
55988;DHT22;67216;50.930;4.514;2023-02-15T05:44:14;2.10;91.70
55988;DHT22;67216;50.930;4.514;2023-02-15T05:46:40;2.00;91.80
55988;DHT22;67216;50.930;4.514;2023-02-15T05:49:06;2.30;91.70
55988;DHT22;67216;50.930;4.514;2023-02-15T05:51:32;2.30;90.90
55988;DHT22;67216;50.930;4.514;2023-02-15T05:54:00;2.30;91.10
55988;DHT22;67216;50.930;4.514;2023-02-15T05:56:26;2.30;90.80
55988;DHT22;67216;50.930;4.514;2023-02-15T05:58:52;2.20;91.20
55988;DHT22;67216;50.930;4.514;2023-02-15T06:01:19;2.20;91.00
55988;DHT22;67216;50.930;4.514;2023-02-15T06:03:47;2.10;91.00
55988;DHT22;67216;50.930;4.514;2023-02-15T06:06:13;2.20;90.70
55988;DHT22;67216;50.930;4.514;2023-02-15T06:08:38;2.00;90.70
55988;DHT22;67216;50.930;4.514;2023-02-15T06:11:07;1.80;90.90
55988;DHT22;67216;50.930;4.514;2023-02-15T06:13:34;1.60;91.70
55988;DHT22;67216;50.930;4.514;2023-02-15T06:16:02;1.70;92.50
55988;DHT22;67216;50.930;4.514;2023-02-15T06:18:28;1.70;92.50
55988;DHT22;67216;50.930;4.514;2023-02-15T06:20:56;1.80;92.60
55988;DHT22;67216;50.930;4.514;2023-02-15T06:23:24;1.80;92.40
55988;DHT22;67216;50.930;4.514;2023-02-15T06:25:49;1.70;92.50
55988;DHT22;67216;50.930;4.514;2023-02-15T06:28:15;1.70;92.20
55988;DHT22;67216;50.930;4.514;2023-02-15T06:30:41;1.70;92.50
55988;DHT22;67216;50.930;4.514;2023-02-15T06:33:06;1.80;92.70
55988;DHT22;67216;50.930;4.514;2023-02-15T06:35:37;1.80;92.50
55988;DHT22;67216;50.930;4.514;2023-02-15T06:38:03;1.60;92.20
55988;DHT22;67216;50.930;4.514;2023-02-15T06:40:31;1.50;92.40
55988;DHT22;67216;50.930;4.514;2023-02-15T06:42:56;1.80;92.00
55988;DHT22;67216;50.930;4.514;2023-02-15T06:45:22;2.30;89.50
55988;DHT22;67216;50.930;4.514;2023-02-15T06:47:47;2.00;89.50
55988;DHT22;67216;50.930;4.514;2023-02-15T06:50:13;1.70;90.60
55988;DHT22;67216;50.930;4.514;2023-02-15T06:52:39;1.50;90.70
55988;DHT22;67216;50.930;4.514;2023-02-15T06:55:05;1.80;90.10
55988;DHT22;67216;50.930;4.514;2023-02-15T06:57:31;2.10;88.50
55988;DHT22;67216;50.930;4.514;2023-02-15T07:00:03;2.20;87.00
55988;DHT22;67216;50.930;4.514;2023-02-15T07:02:32;2.10;87.00
55988;DHT22;67216;50.930;4.514;2023-02-15T07:04:57;2.00;87.20
55988;DHT22;67216;50.930;4.514;2023-02-15T07:07:25;1.90;87.70
55988;DHT22;67216;50.930;4.514;2023-02-15T07:09:51;1.80;88.90
55988;DHT22;67216;50.930;4.514;2023-02-15T07:12:17;2.00;89.50
55988;DHT22;67216;50.930;4.514;2023-02-15T07:15:01;2.30;89.70
55988;DHT22;67216;50.930;4.514;2023-02-15T07:17:29;2.50;89.00
55988;DHT22;67216;50.930;4.514;2023-02-15T07:19:56;2.90;87.80
55988;DHT22;67216;50.930;4.514;2023-02-15T07:22:22;3.20;87.30
55988;DHT22;67216;50.930;4.514;2023-02-15T07:24:48;3.40;86.50
55988;DHT22;67216;50.930;4.514;2023-02-15T07:27:14;4.00;84.70
55988;DHT22;67216;50.930;4.514;2023-02-15T07:29:42;4.40;82.70
55988;DHT22;67216;50.930;4.514;2023-02-15T07:32:08;4.90;80.50
55988;DHT22;67216;50.930;4.514;2023-02-15T07:34:35;5.30;78.80
55988;DHT22;67216;50.930;4.514;2023-02-15T07:37:05;5.60;76.90
55988;DHT22;67216;50.930;4.514;2023-02-15T07:39:31;5.50;77.00
55988;DHT22;67216;50.930;4.514;2023-02-15T07:41:56;5.70;77.50
55988;DHT22;67216;50.930;4.514;2023-02-15T07:44:23;5.70;76.90
55988;DHT22;67216;50.930;4.514;2023-02-15T07:46:51;6.00;75.80
55988;DHT22;67216;50.930;4.514;2023-02-15T07:49:16;6.30;75.00
55988;DHT22;67216;50.930;4.514;2023-02-15T07:51:45;6.80;74.20
55988;DHT22;67216;50.930;4.514;2023-02-15T07:54:11;7.20;72.20
55988;DHT22;67216;50.930;4.514;2023-02-15T07:56:37;8.00;70.50
55988;DHT22;67216;50.930;4.514;2023-02-15T07:59:02;8.20;68.10
55988;DHT22;67216;50.930;4.514;2023-02-15T08:01:36;8.60;66.40
55988;DHT22;67216;50.930;4.514;2023-02-15T08:04:03;9.70;64.50
55988;DHT22;67216;50.930;4.514;2023-02-15T08:06:32;10.50;61.10
55988;DHT22;67216;50.930;4.514;2023-02-15T08:09:02;11.10;58.50
55988;DHT22;67216;50.930;4.514;2023-02-15T08:11:31;11.40;56.70
55988;DHT22;67216;50.930;4.514;2023-02-15T08:14:17;11.50;55.40
55988;DHT22;67216;50.930;4.514;2023-02-15T08:16:48;11.00;55.80
55988;DHT22;67216;50.930;4.514;2023-02-15T08:19:23;10.50;57.40
55988;DHT22;67216;50.930;4.514;2023-02-15T08:21:52;10.10;58.70
55988;DHT22;67216;50.930;4.514;2023-02-15T08:24:19;10.10;59.00
55988;DHT22;67216;50.930;4.514;2023-02-15T08:26:45;10.20;58.70
55988;DHT22;67216;50.930;4.514;2023-02-15T08:29:14;10.30;58.80
55988;DHT22;67216;50.930;4.514;2023-02-15T08:31:41;10.20;59.30
55988;DHT22;67216;50.930;4.514;2023-02-15T08:34:09;10.60;59.10
55988;DHT22;67216;50.930;4.514;2023-02-15T08:36:37;11.40;57.30
55988;DHT22;67216;50.930;4.514;2023-02-15T08:39:04;12.30;55.60
55988;DHT22;67216;50.930;4.514;2023-02-15T08:41:36;13.00;53.20
55988;DHT22;67216;50.930;4.514;2023-02-15T08:44:07;13.20;52.60
55988;DHT22;67216;50.930;4.514;2023-02-15T08:46:35;13.40;52.80
55988;DHT22;67216;50.930;4.514;2023-02-15T08:49:01;13.60;52.00
55988;DHT22;67216;50.930;4.514;2023-02-15T08:51:30;14.10;51.40
55988;DHT22;67216;50.930;4.514;2023-02-15T08:53:59;15.10;49.10
55988;DHT22;67216;50.930;4.514;2023-02-15T08:56:31;15.30;48.10
55988;DHT22;67216;50.930;4.514;2023-02-15T08:58:57;15.10;47.80
55988;DHT22;67216;50.930;4.514;2023-02-15T09:01:26;15.40;46.80
55988;DHT22;67216;50.930;4.514;2023-02-15T09:04:03;14.80;48.00
55988;DHT22;67216;50.930;4.514;2023-02-15T09:06:52;13.80;50.90
55988;DHT22;67216;50.930;4.514;2023-02-15T09:09:20;13.20;52.50
55988;DHT22;67216;50.930;4.514;2023-02-15T09:11:50;13.00;54.30
55988;DHT22;67216;50.930;4.514;2023-02-15T09:14:18;13.30;54.00
55988;DHT22;67216;50.930;4.514;2023-02-15T09:16:46;13.40;53.60
55988;DHT22;67216;50.930;4.514;2023-02-15T09:19:15;13.10;54.30
55988;DHT22;67216;50.930;4.514;2023-02-15T09:21:41;12.70;55.60
55988;DHT22;67216;50.930;4.514;2023-02-15T09:24:08;12.70;56.40
55988;DHT22;67216;50.930;4.514;2023-02-15T09:26:38;12.80;56.60
55988;DHT22;67216;50.930;4.514;2023-02-15T09:29:09;12.90;56.80
55988;DHT22;67216;50.930;4.514;2023-02-15T09:31:47;12.70;56.70
55988;DHT22;67216;50.930;4.514;2023-02-15T09:34:15;13.10;55.30
55988;DHT22;67216;50.930;4.514;2023-02-15T09:36:42;13.10;55.30
55988;DHT22;67216;50.930;4.514;2023-02-15T09:39:25;13.90;54.20
55988;DHT22;67216;50.930;4.514;2023-02-15T09:58:42;12.80;55.90
55988;DHT22;67216;50.930;4.514;2023-02-15T10:04:35;12.30;58.70
55988;DHT22;67216;50.930;4.514;2023-02-15T10:20:58;11.70;62.60
55988;DHT22;67216;50.930;4.514;2023-02-15T10:23:40;11.70;61.00
55988;DHT22;67216;50.930;4.514;2023-02-15T10:26:19;11.90;60.40
55988;DHT22;67216;50.930;4.514;2023-02-15T10:28:51;12.00;61.90
55988;DHT22;67216;50.930;4.514;2023-02-15T10:31:27;11.90;61.50
55988;DHT22;67216;50.930;4.514;2023-02-15T10:56:20;13.00;56.00
55988;DHT22;67216;50.930;4.514;2023-02-15T11:01:41;12.70;56.40
55988;DHT22;67216;50.930;4.514;2023-02-15T11:06:53;12.90;55.80
55988;DHT22;67216;50.930;4.514;2023-02-15T11:09:25;13.20;54.20
55988;DHT22;67216;50.930;4.514;2023-02-15T11:11:56;13.30;54.10
55988;DHT22;67216;50.930;4.514;2023-02-15T11:17:04;13.10;53.40
55988;DHT22;67216;50.930;4.514;2023-02-15T11:19:47;13.20;52.50
55988;DHT22;67216;50.930;4.514;2023-02-15T11:22:21;13.10;54.00
55988;DHT22;67216;50.930;4.514;2023-02-15T11:24:47;13.20;53.30
55988;DHT22;67216;50.930;4.514;2023-02-15T11:27:22;13.10;54.60
55988;DHT22;67216;50.930;4.514;2023-02-15T11:30:02;13.20;55.40
55988;DHT22;67216;50.930;4.514;2023-02-15T11:32:40;13.30;54.50
55988;DHT22;67216;50.930;4.514;2023-02-15T11:40:35;13.10;55.60
55988;DHT22;67216;50.930;4.514;2023-02-15T11:43:13;13.00;56.10
55988;DHT22;67216;50.930;4.514;2023-02-15T11:45:46;13.10;56.70
55988;DHT22;67216;50.930;4.514;2023-02-15T11:48:15;13.30;56.30
55988;DHT22;67216;50.930;4.514;2023-02-15T11:50:45;13.40;54.10
55988;DHT22;67216;50.930;4.514;2023-02-15T11:53:22;13.50;54.60
55988;DHT22;67216;50.930;4.514;2023-02-15T11:55:53;13.60;54.60
55988;DHT22;67216;50.930;4.514;2023-02-15T11:58:28;13.80;53.10
55988;DHT22;67216;50.930;4.514;2023-02-15T12:01:00;14.10;53.90
55988;DHT22;67216;50.930;4.514;2023-02-15T12:06:11;13.70;53.90
55988;DHT22;67216;50.930;4.514;2023-02-15T12:08:42;13.80;53.60
55988;DHT22;67216;50.930;4.514;2023-02-15T12:11:17;14.00;52.60
55988;DHT22;67216;50.930;4.514;2023-02-15T12:14:06;14.10;51.40
55988;DHT22;67216;50.930;4.514;2023-02-15T12:16:48;14.30;51.00
55988;DHT22;67216;50.930;4.514;2023-02-15T12:19:36;14.20;54.20
55988;DHT22;67216;50.930;4.514;2023-02-15T12:22:03;14.00;53.90
55988;DHT22;67216;50.930;4.514;2023-02-15T12:24:36;13.90;55.00
55988;DHT22;67216;50.930;4.514;2023-02-15T12:27:47;14.00;53.80
55988;DHT22;67216;50.930;4.514;2023-02-15T12:33:13;14.10;55.10
55988;DHT22;67216;50.930;4.514;2023-02-15T12:35:40;13.90;54.70
55988;DHT22;67216;50.930;4.514;2023-02-15T12:40:37;14.10;55.10
55988;DHT22;67216;50.930;4.514;2023-02-15T12:43:35;13.70;55.00
55988;DHT22;67216;50.930;4.514;2023-02-15T12:46:22;13.60;55.30
55988;DHT22;67216;50.930;4.514;2023-02-15T12:49:14;13.30;56.00
55988;DHT22;67216;50.930;4.514;2023-02-15T12:51:46;13.30;57.20
55988;DHT22;67216;50.930;4.514;2023-02-15T12:54:37;13.60;56.80
55988;DHT22;67216;50.930;4.514;2023-02-15T12:57:32;13.80;56.30
55988;DHT22;67216;50.930;4.514;2023-02-15T12:59:59;14.00;56.10
55988;DHT22;67216;50.930;4.514;2023-02-15T13:02:41;14.10;54.90
55988;DHT22;67216;50.930;4.514;2023-02-15T13:08:27;14.80;52.30
55988;DHT22;67216;50.930;4.514;2023-02-15T13:13:33;15.10;50.50
55988;DHT22;67216;50.930;4.514;2023-02-15T13:16:04;15.10;51.10
55988;DHT22;67216;50.930;4.514;2023-02-15T13:18:44;15.00;51.30
55988;DHT22;67216;50.930;4.514;2023-02-15T13:21:15;15.00;52.00
55988;DHT22;67216;50.930;4.514;2023-02-15T13:23:48;14.60;53.50
55988;DHT22;67216;50.930;4.514;2023-02-15T13:26:20;14.40;54.00
55988;DHT22;67216;50.930;4.514;2023-02-15T13:28:55;14.30;54.60
55988;DHT22;67216;50.930;4.514;2023-02-15T13:31:27;14.50;53.70
55988;DHT22;67216;50.930;4.514;2023-02-15T13:39:58;14.40;54.40
55988;DHT22;67216;50.930;4.514;2023-02-15T13:42:26;14.60;53.30
55988;DHT22;67216;50.930;4.514;2023-02-15T13:47:48;14.30;54.10
55988;DHT22;67216;50.930;4.514;2023-02-15T13:50:20;14.10;54.90
55988;DHT22;67216;50.930;4.514;2023-02-15T14:01:10;14.30;54.50
55988;DHT22;67216;50.930;4.514;2023-02-15T14:20:24;14.20;55.30
55988;DHT22;67216;50.930;4.514;2023-02-15T14:25:58;14.50;55.90
55988;DHT22;67216;50.930;4.514;2023-02-15T14:28:37;14.70;56.30
55988;DHT22;67216;50.930;4.514;2023-02-15T14:31:09;14.70;55.70
55988;DHT22;67216;50.930;4.514;2023-02-15T14:33:42;14.70;55.80
55988;DHT22;67216;50.930;4.514;2023-02-15T14:36:15;14.60;55.50
55988;DHT22;67216;50.930;4.514;2023-02-15T14:38:51;14.60;55.30
55988;DHT22;67216;50.930;4.514;2023-02-15T14:46:54;14.40;56.30
55988;DHT22;67216;50.930;4.514;2023-02-15T14:49:32;14.50;56.60
55988;DHT22;67216;50.930;4.514;2023-02-15T14:52:18;14.30;56.70
55988;DHT22;67216;50.930;4.514;2023-02-15T15:04:42;14.30;57.70
55988;DHT22;67216;50.930;4.514;2023-02-15T15:07:41;14.30;57.60
55988;DHT22;67216;50.930;4.514;2023-02-15T15:12:47;13.70;59.50
55988;DHT22;67216;50.930;4.514;2023-02-15T15:15:34;13.50;60.00
55988;DHT22;67216;50.930;4.514;2023-02-15T15:18:10;13.40;60.70
55988;DHT22;67216;50.930;4.514;2023-02-15T15:20:56;13.00;62.00
55988;DHT22;67216;50.930;4.514;2023-02-15T15:26:21;13.10;62.40
55988;DHT22;67216;50.930;4.514;2023-02-15T15:31:20;13.00;61.70
55988;DHT22;67216;50.930;4.514;2023-02-15T15:50:58;12.70;63.90
55988;DHT22;67216;50.930;4.514;2023-02-15T15:53:28;12.90;62.80
55988;DHT22;67216;50.930;4.514;2023-02-15T15:56:02;12.90;61.70
55988;DHT22;67216;50.930;4.514;2023-02-15T15:58:34;13.10;60.80
55988;DHT22;67216;50.930;4.514;2023-02-15T16:01:09;13.20;59.50
55988;DHT22;67216;50.930;4.514;2023-02-15T16:03:49;13.30;59.00
55988;DHT22;67216;50.930;4.514;2023-02-15T16:06:27;13.20;59.70
55988;DHT22;67216;50.930;4.514;2023-02-15T16:08:53;13.10;59.50
55988;DHT22;67216;50.930;4.514;2023-02-15T16:11:23;12.90;60.00
55988;DHT22;67216;50.930;4.514;2023-02-15T16:13:50;12.90;59.70
55988;DHT22;67216;50.930;4.514;2023-02-15T16:16:24;12.70;59.80
55988;DHT22;67216;50.930;4.514;2023-02-15T16:18:53;12.70;60.30
55988;DHT22;67216;50.930;4.514;2023-02-15T16:21:23;12.40;61.20
55988;DHT22;67216;50.930;4.514;2023-02-15T16:26:56;12.30;62.10
55988;DHT22;67216;50.930;4.514;2023-02-15T16:29:29;12.20;62.10
55988;DHT22;67216;50.930;4.514;2023-02-15T16:32:14;12.10;62.60
55988;DHT22;67216;50.930;4.514;2023-02-15T16:34:52;11.80;63.70
55988;DHT22;67216;50.930;4.514;2023-02-15T16:37:21;11.60;64.40
55988;DHT22;67216;50.930;4.514;2023-02-15T16:39:49;11.60;64.60
55988;DHT22;67216;50.930;4.514;2023-02-15T16:42:16;11.40;65.70
55988;DHT22;67216;50.930;4.514;2023-02-15T16:44:44;11.20;66.10
55988;DHT22;67216;50.930;4.514;2023-02-15T16:47:19;11.10;66.70
55988;DHT22;67216;50.930;4.514;2023-02-15T16:49:49;11.10;66.70
55988;DHT22;67216;50.930;4.514;2023-02-15T16:52:24;10.90;67.30
55988;DHT22;67216;50.930;4.514;2023-02-15T16:55:02;10.70;68.00
55988;DHT22;67216;50.930;4.514;2023-02-15T16:57:36;10.50;68.90
55988;DHT22;67216;50.930;4.514;2023-02-15T17:00:07;10.60;68.70
55988;DHT22;67216;50.930;4.514;2023-02-15T17:02:34;10.80;67.50
55988;DHT22;67216;50.930;4.514;2023-02-15T17:05:19;10.70;67.90
55988;DHT22;67216;50.930;4.514;2023-02-15T17:10:32;10.40;70.40
55988;DHT22;67216;50.930;4.514;2023-02-15T17:13:09;10.20;70.00
55988;DHT22;67216;50.930;4.514;2023-02-15T17:15:36;10.10;70.70
55988;DHT22;67216;50.930;4.514;2023-02-15T17:20:40;9.90;71.10
55988;DHT22;67216;50.930;4.514;2023-02-15T17:23:22;9.90;71.30
55988;DHT22;67216;50.930;4.514;2023-02-15T17:25:48;9.90;70.50
55988;DHT22;67216;50.930;4.514;2023-02-15T17:28:20;9.70;71.20
55988;DHT22;67216;50.930;4.514;2023-02-15T17:30:52;9.60;71.40
55988;DHT22;67216;50.930;4.514;2023-02-15T17:36:09;9.30;72.60
55988;DHT22;67216;50.930;4.514;2023-02-15T17:39:06;9.20;72.70
55988;DHT22;67216;50.930;4.514;2023-02-15T17:41:34;9.40;72.80
55988;DHT22;67216;50.930;4.514;2023-02-15T17:44:02;9.40;72.60
55988;DHT22;67216;50.930;4.514;2023-02-15T17:46:33;9.50;72.70
55988;DHT22;67216;50.930;4.514;2023-02-15T17:49:02;9.50;72.80
55988;DHT22;67216;50.930;4.514;2023-02-15T17:51:33;9.50;72.80
55988;DHT22;67216;50.930;4.514;2023-02-15T17:54:03;9.70;72.70
55988;DHT22;67216;50.930;4.514;2023-02-15T17:56:47;9.70;72.60
55988;DHT22;67216;50.930;4.514;2023-02-15T17:59:15;9.70;72.70
55988;DHT22;67216;50.930;4.514;2023-02-15T18:01:47;9.70;73.10
55988;DHT22;67216;50.930;4.514;2023-02-15T18:04:37;9.70;72.90
55988;DHT22;67216;50.930;4.514;2023-02-15T18:07:22;9.60;73.30
55988;DHT22;67216;50.930;4.514;2023-02-15T18:10:20;9.70;73.40
55988;DHT22;67216;50.930;4.514;2023-02-15T18:13:05;9.60;73.70
55988;DHT22;67216;50.930;4.514;2023-02-15T18:15:31;9.60;73.90
55988;DHT22;67216;50.930;4.514;2023-02-15T18:17:57;9.80;73.30
55988;DHT22;67216;50.930;4.514;2023-02-15T18:20:35;9.60;73.70
55988;DHT22;67216;50.930;4.514;2023-02-15T18:23:14;9.50;74.30
55988;DHT22;67216;50.930;4.514;2023-02-15T18:25:45;9.60;74.20
55988;DHT22;67216;50.930;4.514;2023-02-15T18:28:11;9.60;74.10
55988;DHT22;67216;50.930;4.514;2023-02-15T18:30:39;9.50;73.90
55988;DHT22;67216;50.930;4.514;2023-02-15T18:33:35;9.50;74.60
55988;DHT22;67216;50.930;4.514;2023-02-15T18:36:04;9.70;74.70
55988;DHT22;67216;50.930;4.514;2023-02-15T18:38:31;9.40;74.00
55988;DHT22;67216;50.930;4.514;2023-02-15T18:40:57;9.30;75.10
55988;DHT22;67216;50.930;4.514;2023-02-15T18:43:23;9.20;75.40
55988;DHT22;67216;50.930;4.514;2023-02-15T18:45:48;9.20;75.20
55988;DHT22;67216;50.930;4.514;2023-02-15T18:48:14;9.20;75.70
55988;DHT22;67216;50.930;4.514;2023-02-15T18:50:40;9.00;75.60
55988;DHT22;67216;50.930;4.514;2023-02-15T18:53:14;9.00;75.80
55988;DHT22;67216;50.930;4.514;2023-02-15T18:55:43;9.00;76.40
55988;DHT22;67216;50.930;4.514;2023-02-15T18:58:15;8.80;77.30
55988;DHT22;67216;50.930;4.514;2023-02-15T19:00:41;8.80;77.70
55988;DHT22;67216;50.930;4.514;2023-02-15T19:03:12;8.80;78.00
55988;DHT22;67216;50.930;4.514;2023-02-15T19:05:40;8.90;77.20
55988;DHT22;67216;50.930;4.514;2023-02-15T19:08:16;9.20;76.40
55988;DHT22;67216;50.930;4.514;2023-02-15T19:10:42;9.10;76.30
55988;DHT22;67216;50.930;4.514;2023-02-15T19:13:09;9.10;76.20
55988;DHT22;67216;50.930;4.514;2023-02-15T19:15:35;9.30;75.70
55988;DHT22;67216;50.930;4.514;2023-02-15T19:18:01;9.30;75.70
55988;DHT22;67216;50.930;4.514;2023-02-15T19:20:47;9.30;76.00
55988;DHT22;67216;50.930;4.514;2023-02-15T19:23:22;9.40;75.30
55988;DHT22;67216;50.930;4.514;2023-02-15T19:25:54;9.40;75.20
55988;DHT22;67216;50.930;4.514;2023-02-15T19:28:32;9.40;75.00
55988;DHT22;67216;50.930;4.514;2023-02-15T19:30:58;9.30;75.50
55988;DHT22;67216;50.930;4.514;2023-02-15T19:33:23;9.30;75.20